createdAt,value
2023-03-29T00:00:06.137Z,74.34
2023-03-29T00:03:10.956Z,74.76
2023-03-29T00:06:22.368Z,74.65
2023-03-29T00:09:27.923Z,75.48
2023-03-29T00:12:32.570Z,74.68
2023-03-29T00:15:36.809Z,75.01
2023-03-29T00:18:39.992Z,74.59
2023-03-29T00:21:43.058Z,74.69
2023-03-29T00:24:49.205Z,74.97
2023-03-29T00:27:52.288Z,74.83
2023-03-29T00:30:55.244Z,74.00
2023-03-29T00:33:58.181Z,73.69
2023-03-29T00:37:01.022Z,73.27
2023-03-29T00:40:09.873Z,72.98
2023-03-29T00:43:13.185Z,72.90
2023-03-29T00:46:16.072Z,72.99
2023-03-29T00:49:19.176Z,73.51
2023-03-29T00:52:24.229Z,74.19
2023-03-29T00:55:32.825Z,73.71
2023-03-29T00:58:39.356Z,74.03
2023-03-29T01:01:54.960Z,73.96
2023-03-29T01:05:05.576Z,73.24
2023-03-29T01:08:12.740Z,73.12
2023-03-29T01:11:22.712Z,72.91
2023-03-29T01:14:35.230Z,72.35
2023-03-29T01:17:39.259Z,72.61
2023-03-29T01:20:55.769Z,73.36
2023-03-29T01:24:34.657Z,72.85
2023-03-29T01:27:50.146Z,72.59
2023-03-29T01:30:59.018Z,72.43
2023-03-29T01:34:07.424Z,72.07
2023-03-29T01:37:17.288Z,71.84
2023-03-29T01:40:21.337Z,72.18
2023-03-29T01:43:31.798Z,72.33
2023-03-29T01:46:41.443Z,71.97
2023-03-29T01:49:50.448Z,71.88
2023-03-29T01:52:58.705Z,72.18
2023-03-29T01:56:07.606Z,71.71
2023-03-29T01:59:15.267Z,71.39
2023-03-29T02:02:21.592Z,71.91
2023-03-29T02:05:26.517Z,71.79
2023-03-29T02:08:30.984Z,72.31
2023-03-29T02:11:36.087Z,72.17
2023-03-29T02:14:40.654Z,72.27
2023-03-29T02:17:44.691Z,72.63
2023-03-29T02:20:51.898Z,72.60
2023-03-29T02:23:57.807Z,73.58
2023-03-29T02:27:01.897Z,73.50
2023-03-29T02:30:07.910Z,72.95
2023-03-29T02:33:15.739Z,72.57
2023-03-29T02:36:23.592Z,73.27
2023-03-29T02:39:28.916Z,72.77
2023-03-29T02:42:32.755Z,73.25
2023-03-29T02:45:38.214Z,73.06
2023-03-29T02:48:41.926Z,73.00
2023-03-29T02:51:47.410Z,72.98
2023-03-29T02:54:54.376Z,73.37
2023-03-29T02:57:57.340Z,73.20
2023-03-29T03:01:03.617Z,73.65
2023-03-29T03:04:06.842Z,73.44
2023-03-29T03:07:09.726Z,73.42
2023-03-29T03:10:12.635Z,73.41
2023-03-29T03:13:15.711Z,73.44
2023-03-29T03:16:20.231Z,73.91
2023-03-29T03:19:23.089Z,73.71
2023-03-29T03:22:26.378Z,73.64
2023-03-29T03:25:29.127Z,73.88
2023-03-29T03:28:32.373Z,75.42
2023-03-29T03:31:36.624Z,75.66
2023-03-29T03:34:39.720Z,75.66
2023-03-29T03:37:42.970Z,75.23
2023-03-29T03:40:45.797Z,75.96
2023-03-29T03:43:49.160Z,76.42
2023-03-29T03:46:53.204Z,76.98
2023-03-29T03:49:55.916Z,76.98
2023-03-29T03:52:58.570Z,76.23
2023-03-29T03:56:02.210Z,76.70
2023-03-29T03:59:05.209Z,76.35
2023-03-29T04:02:09.402Z,76.49
2023-03-29T04:05:12.268Z,76.38
2023-03-29T04:08:16.018Z,77.58
2023-03-29T04:11:18.997Z,77.45
2023-03-29T04:14:22.111Z,77.60
2023-03-29T04:17:26.363Z,76.65
2023-03-29T04:20:29.719Z,76.39
2023-03-29T04:23:32.521Z,76.86
2023-03-29T04:26:35.400Z,76.27
2023-03-29T04:29:38.131Z,76.70
2023-03-29T04:32:42.299Z,74.66
2023-03-29T04:35:45.170Z,71.46
2023-03-29T04:38:48.810Z,71.01
2023-03-29T04:41:51.602Z,69.98
2023-03-29T04:44:54.765Z,65.48
2023-03-29T04:47:59.724Z,63.99
2023-03-29T04:51:03.017Z,65.36
2023-03-29T04:54:06.579Z,65.61
2023-03-29T04:57:09.695Z,66.15
2023-03-29T05:00:16.916Z,67.13
2023-03-29T05:03:21.884Z,67.68
2023-03-29T05:06:24.639Z,67.51
2023-03-29T05:09:27.556Z,65.86
2023-03-29T05:12:30.525Z,68.27
2023-03-29T05:15:33.227Z,67.92
2023-03-29T05:18:37.737Z,66.91
2023-03-29T05:21:41.366Z,67.03
2023-03-29T05:24:45.007Z,65.73
2023-03-29T05:27:48.129Z,65.81
2023-03-29T05:31:01.451Z,65.54
2023-03-29T05:34:06.998Z,62.81
2023-03-29T05:37:10.220Z,63.24
2023-03-29T05:40:13.584Z,63.85
2023-03-29T05:43:16.704Z,64.56
2023-03-29T05:46:19.815Z,62.84
2023-03-29T05:49:24.069Z,60.21
2023-03-29T05:52:27.459Z,62.14
2023-03-29T05:55:30.454Z,61.86
2023-03-29T05:58:33.137Z,60.11
2023-03-29T06:01:36.810Z,59.50
2023-03-29T06:04:41.228Z,59.20
2023-03-29T06:07:44.096Z,60.47
2023-03-29T06:10:47.277Z,61.86
2023-03-29T06:13:50.231Z,64.43
2023-03-29T06:16:53.563Z,64.35
2023-03-29T06:19:58.601Z,63.95
2023-03-29T06:23:01.643Z,63.30
2023-03-29T06:26:05.777Z,62.00
2023-03-29T06:29:09.209Z,61.15
2023-03-29T06:32:12.640Z,61.26
2023-03-29T06:35:16.871Z,62.20
2023-03-29T06:38:20.772Z,63.95
2023-03-29T06:41:23.795Z,64.58
2023-03-29T06:44:28.369Z,64.37
2023-03-29T06:47:31.701Z,64.34
2023-03-29T06:50:36.696Z,66.11
2023-03-29T06:53:39.576Z,66.07
2023-03-29T06:56:42.445Z,65.06
2023-03-29T06:59:45.526Z,64.81
2023-03-29T07:02:49.155Z,64.68
2023-03-29T07:06:01.205Z,64.99
2023-03-29T07:09:06.616Z,64.77
2023-03-29T07:12:10.494Z,64.54
2023-03-29T07:15:13.541Z,60.92
2023-03-29T07:18:17.210Z,60.35
2023-03-29T07:21:21.688Z,61.29
2023-03-29T07:24:24.672Z,62.19
2023-03-29T07:27:27.600Z,62.22
2023-03-29T07:30:33.503Z,62.62
2023-03-29T07:33:37.207Z,63.61
2023-03-29T07:36:43.712Z,64.51
2023-03-29T07:39:46.961Z,64.45
2023-03-29T07:42:51.953Z,64.66
2023-03-29T07:45:55.875Z,65.07
2023-03-29T07:48:58.809Z,63.79
2023-03-29T07:52:03.750Z,62.65
2023-03-29T07:55:08.426Z,62.87
2023-03-29T07:58:11.441Z,61.85
2023-03-29T08:01:18.802Z,60.97
2023-03-29T08:04:22.583Z,61.50
2023-03-29T08:07:27.439Z,60.63
2023-03-29T08:10:30.329Z,61.64
2023-03-29T08:13:33.340Z,62.05
2023-03-29T08:16:36.265Z,61.63
2023-03-29T08:19:39.216Z,61.66
2023-03-29T08:22:44.443Z,60.52
2023-03-29T08:25:47.425Z,61.07
2023-03-29T08:28:50.199Z,61.68
2023-03-29T08:31:53.194Z,60.87
2023-03-29T08:34:56.083Z,60.61
2023-03-29T08:38:00.574Z,60.47
2023-03-29T08:41:20.661Z,60.82
2023-03-29T08:44:40.371Z,60.83
2023-03-29T08:47:51.696Z,61.23
2023-03-29T08:50:58.891Z,59.60
2023-03-29T08:54:07.236Z,59.20
2023-03-29T08:57:17.458Z,60.76
2023-03-29T09:00:25.717Z,59.46
2023-03-29T09:03:32.371Z,59.89
2023-03-29T09:06:35.987Z,59.38
2023-03-29T09:09:41.752Z,59.63
2023-03-29T09:12:56.284Z,61.02
2023-03-29T09:16:08.430Z,60.65
2023-03-29T09:19:20.878Z,59.41
2023-03-29T09:22:31.412Z,59.88
2023-03-29T09:25:53.350Z,58.80
2023-03-29T09:29:09.460Z,57.43
2023-03-29T09:32:19.972Z,58.14
2023-03-29T09:35:24.746Z,57.05
2023-03-29T09:38:29.938Z,55.82
2023-03-29T09:41:38.332Z,55.71
2023-03-29T09:44:44.928Z,54.80
2023-03-29T09:47:52.064Z,52.90
2023-03-29T09:50:55.402Z,54.95
2023-03-29T09:54:00.216Z,55.26
2023-03-29T09:57:04.581Z,54.11
2023-03-29T10:00:10.794Z,53.18
2023-03-29T10:03:30.478Z,53.01
2023-03-29T10:06:43.186Z,53.61
2023-03-29T10:09:55.184Z,53.89
2023-03-29T10:13:02.674Z,52.51
2023-03-29T10:16:07.406Z,50.52
2023-03-29T10:19:24.918Z,48.29
2023-03-29T10:22:38.877Z,47.51
2023-03-29T10:25:45.794Z,48.86
2023-03-29T10:28:57.419Z,49.68
2023-03-29T10:32:00.466Z,48.21
2023-03-29T10:35:10.747Z,46.24
2023-03-29T10:38:17.404Z,47.68
2023-03-29T10:41:23.050Z,47.99
2023-03-29T10:44:32.885Z,47.43
2023-03-29T10:47:36.442Z,45.54
2023-03-29T10:50:39.586Z,45.58
2023-03-29T10:53:42.858Z,43.99
2023-03-29T10:56:52.329Z,43.59
2023-03-29T11:00:02.408Z,44.47
2023-03-29T11:03:30.666Z,41.88
2023-03-29T11:06:38.819Z,44.20
2023-03-29T11:09:51.327Z,43.51
2023-03-29T11:12:58.881Z,42.30
2023-03-29T11:16:15.102Z,41.49
2023-03-29T11:19:43.824Z,40.92
2023-03-29T11:22:53.303Z,41.87
2023-03-29T11:26:05.342Z,41.20
2023-03-29T11:29:16.695Z,40.01
2023-03-29T11:32:30.271Z,39.64
2023-03-29T11:35:51.946Z,39.79
2023-03-29T11:39:04.907Z,40.01
2023-03-29T11:42:12.685Z,41.10
2023-03-29T11:45:22.083Z,40.50
2023-03-29T11:48:32.675Z,43.12
2023-03-29T11:51:39.316Z,40.69
2023-03-29T11:54:45.535Z,42.98
2023-03-29T11:57:53.923Z,41.76
2023-03-29T12:01:02.788Z,41.80
2023-03-29T12:04:14.320Z,42.61
2023-03-29T12:07:24.251Z,43.41
2023-03-29T12:10:36.155Z,40.46
2023-03-29T12:13:43.947Z,43.26
2023-03-29T12:16:51.890Z,44.89
2023-03-29T12:20:04.354Z,45.10
2023-03-29T12:23:09.121Z,43.93
2023-03-29T12:26:29.303Z,44.15
2023-03-29T12:29:48.526Z,45.84
2023-03-29T12:33:15.762Z,42.95
2023-03-29T12:36:49.776Z,43.67
2023-03-29T12:39:53.437Z,42.81
2023-03-29T12:43:02.230Z,44.80
2023-03-29T12:46:09.478Z,43.64
2023-03-29T12:49:15.944Z,44.33
2023-03-29T12:52:28.003Z,45.89
2023-03-29T12:55:34.712Z,43.71
2023-03-29T12:58:53.622Z,44.13
2023-03-29T13:02:01.800Z,44.27
2023-03-29T13:05:07.573Z,45.12
2023-03-29T13:08:35.582Z,46.25
2023-03-29T13:11:41.328Z,44.36
2023-03-29T13:14:47.119Z,43.84
2023-03-29T13:17:59.608Z,44.10
2023-03-29T13:21:09.155Z,45.06
2023-03-29T13:24:34.709Z,45.17
2023-03-29T13:27:46.541Z,44.55
2023-03-29T13:30:59.434Z,46.54
2023-03-29T13:34:13.580Z,47.32
2023-03-29T13:37:30.993Z,46.17
2023-03-29T13:40:48.084Z,47.39
2023-03-29T13:43:54.699Z,47.07
2023-03-29T13:47:06.610Z,47.46
2023-03-29T13:50:17.818Z,48.37
2023-03-29T13:53:28.727Z,49.05
2023-03-29T13:56:39.889Z,48.37
2023-03-29T13:59:50.639Z,51.39
2023-03-29T14:03:01.813Z,57.29
2023-03-29T14:06:28.845Z,61.98
2023-03-29T14:09:34.722Z,65.80
2023-03-29T14:12:42.211Z,66.57
2023-03-29T14:15:52.599Z,68.58
2023-03-29T14:19:00.148Z,68.83
2023-03-29T14:22:04.396Z,68.77
2023-03-29T14:25:13.878Z,67.94
2023-03-29T14:28:27.056Z,67.67
2023-03-29T14:31:33.105Z,66.22
2023-03-29T14:34:36.190Z,67.70
2023-03-29T14:37:39.155Z,68.66
2023-03-29T14:40:45.192Z,67.94
2023-03-29T14:43:49.664Z,68.58
2023-03-29T14:46:52.784Z,64.34
2023-03-29T14:50:00.535Z,64.98
2023-03-29T14:53:04.098Z,65.10
2023-03-29T14:56:08.241Z,65.08
2023-03-29T14:59:27.126Z,65.78
2023-03-29T15:02:32.042Z,65.48
2023-03-29T15:05:38.825Z,64.84
2023-03-29T15:08:51.105Z,64.52
2023-03-29T15:12:02.429Z,63.22
2023-03-29T15:15:12.041Z,64.08
2023-03-29T15:18:17.951Z,64.50
2023-03-29T15:21:23.263Z,63.14
2023-03-29T15:24:31.090Z,61.98
2023-03-29T15:27:42.535Z,62.58
2023-03-29T15:30:54.217Z,62.60
2023-03-29T15:34:08.940Z,60.88
2023-03-29T15:37:13.293Z,61.06
2023-03-29T15:40:17.210Z,61.81
2023-03-29T15:43:21.647Z,62.82
2023-03-29T15:46:26.352Z,62.60
2023-03-29T15:49:29.374Z,63.21
2023-03-29T15:52:32.496Z,63.08
2023-03-29T15:55:35.401Z,62.80
2023-03-29T15:58:38.796Z,63.13
2023-03-29T16:01:43.207Z,63.01
2023-03-29T16:04:46.174Z,63.36
2023-03-29T16:07:49.412Z,63.24
2023-03-29T16:10:52.128Z,64.28
2023-03-29T16:13:55.475Z,64.86
2023-03-29T16:17:01.463Z,66.67
2023-03-29T16:20:05.955Z,65.28
2023-03-29T16:23:09.858Z,66.22
2023-03-29T16:29:17.477Z,67.40
2023-03-29T16:32:21.955Z,67.03
2023-03-29T16:35:28.315Z,66.48
2023-03-29T16:38:31.037Z,65.52
2023-03-29T16:41:34.459Z,66.05
2023-03-29T16:44:37.357Z,65.87
2023-03-29T16:47:44.784Z,66.81
2023-03-29T16:50:49.492Z,66.81
2023-03-29T16:53:52.608Z,65.79
2023-03-29T16:56:55.496Z,66.34
2023-03-29T16:59:58.385Z,66.09
2023-03-29T17:03:02.712Z,65.80
2023-03-29T17:06:06.885Z,65.73
2023-03-29T17:09:09.802Z,66.24
2023-03-29T17:12:12.826Z,67.18
2023-03-29T17:15:17.384Z,69.53
2023-03-29T17:18:22.416Z,70.27
2023-03-29T17:21:25.472Z,68.55
2023-03-29T17:24:28.184Z,66.84
2023-03-29T17:27:31.104Z,67.06
2023-03-29T17:30:34.970Z,68.35
2023-03-29T17:33:39.489Z,70.62
2023-03-29T17:36:42.277Z,72.83
2023-03-29T17:39:46.147Z,71.25
2023-03-29T17:42:52.345Z,69.52
2023-03-29T17:45:55.857Z,70.94
2023-03-29T17:49:00.471Z,70.88
2023-03-29T17:52:03.657Z,70.84
2023-03-29T17:55:11.102Z,69.29
2023-03-29T17:58:14.136Z,69.35
2023-03-29T18:01:19.716Z,71.59
2023-03-29T18:04:24.104Z,72.67
2023-03-29T18:07:26.882Z,71.36
2023-03-29T18:10:30.957Z,68.85
2023-03-29T18:13:33.741Z,68.52
2023-03-29T18:16:36.936Z,68.96
2023-03-29T18:19:41.296Z,70.88
2023-03-29T18:22:45.808Z,72.30
2023-03-29T18:25:48.803Z,72.56
2023-03-29T18:28:51.762Z,73.34
2023-03-29T18:31:54.591Z,73.79
2023-03-29T18:34:58.863Z,74.08
2023-03-29T18:38:03.091Z,73.71
2023-03-29T18:41:06.769Z,73.42
2023-03-29T18:44:10.555Z,73.39
2023-03-29T18:47:13.181Z,73.61
2023-03-29T18:50:17.361Z,73.97
2023-03-29T18:53:20.170Z,73.54
2023-03-29T18:56:22.916Z,72.47
2023-03-29T18:59:26.011Z,72.57
2023-03-29T19:02:29.086Z,72.24
2023-03-29T19:05:33.054Z,71.23
2023-03-29T19:08:37.238Z,71.53
2023-03-29T19:11:40.001Z,71.79
2023-03-29T19:14:42.599Z,71.64
2023-03-29T19:17:45.243Z,71.63
2023-03-29T19:20:50.873Z,71.87
2023-03-29T19:23:53.486Z,72.21
2023-03-29T19:26:56.443Z,71.86
2023-03-29T19:29:59.281Z,70.89
2023-03-29T19:33:02.020Z,69.60
2023-03-29T19:36:07.009Z,70.55
2023-03-29T19:39:09.962Z,71.18
2023-03-29T19:42:12.788Z,71.50
2023-03-29T19:45:15.483Z,71.19
2023-03-29T19:48:23.482Z,71.17
2023-03-29T19:51:28.823Z,71.31
2023-03-29T19:54:32.078Z,70.61
2023-03-29T19:57:34.917Z,70.58
2023-03-29T20:00:38.755Z,71.22
2023-03-29T20:03:43.535Z,70.88
2023-03-29T20:06:48.233Z,70.82
2023-03-29T20:09:50.900Z,71.34
2023-03-29T20:12:56.705Z,70.95
2023-03-29T20:15:59.417Z,70.94
2023-03-29T20:19:02.579Z,71.25
2023-03-29T20:22:07.926Z,70.77
2023-03-29T20:25:11.311Z,71.58
2023-03-29T20:28:14.888Z,71.70
2023-03-29T20:31:17.628Z,72.31
2023-03-29T20:34:20.378Z,72.24
2023-03-29T20:37:25.893Z,72.02
2023-03-29T20:40:29.974Z,72.55
2023-03-29T20:43:37.161Z,72.78
2023-03-29T20:46:46.153Z,72.54
2023-03-29T20:49:54.250Z,72.51
2023-03-29T20:53:03.594Z,72.45
2023-03-29T20:56:06.980Z,72.47
2023-03-29T20:59:12.065Z,72.39
2023-03-29T21:02:18.856Z,72.00
2023-03-29T21:05:21.806Z,71.73
2023-03-29T21:08:29.651Z,71.59
2023-03-29T21:11:33.351Z,71.10
2023-03-29T21:14:36.101Z,71.20
2023-03-29T21:17:38.824Z,70.85
2023-03-29T21:20:41.908Z,70.47
2023-03-29T21:23:45.923Z,70.25
2023-03-29T21:26:48.627Z,69.95
2023-03-29T21:29:51.259Z,70.27
2023-03-29T21:32:53.896Z,69.49
2023-03-29T21:35:56.604Z,69.64
2023-03-29T21:39:00.680Z,62.58
2023-03-29T21:42:03.698Z,65.57
2023-03-29T21:45:07.281Z,65.35
2023-03-29T21:48:09.936Z,60.55
2023-03-29T21:51:12.552Z,57.69
2023-03-29T21:54:16.901Z,56.85
2023-03-29T21:57:19.608Z,56.41
2023-03-29T22:00:22.428Z,56.59
2023-03-29T22:03:25.101Z,54.36
2023-03-29T22:06:27.703Z,54.32
2023-03-29T22:09:33.364Z,53.11
2023-03-29T22:12:37.266Z,52.92
2023-03-29T22:15:39.881Z,53.06
2023-03-29T22:18:46.782Z,52.69
2023-03-29T22:21:49.601Z,52.65
2023-03-29T22:24:54.689Z,52.40
2023-03-29T22:27:57.416Z,52.11
2023-03-29T22:31:03.373Z,52.57
2023-03-29T22:34:06.158Z,52.42
2023-03-29T22:37:08.928Z,51.39
2023-03-29T22:40:14.094Z,52.01
2023-03-29T22:43:16.753Z,51.19
2023-03-29T22:46:20.726Z,51.67
2023-03-29T22:49:23.390Z,51.39
2023-03-29T22:52:26.142Z,51.61
2023-03-29T22:55:30.144Z,51.54
2023-03-29T22:58:32.751Z,51.53
2023-03-29T23:01:35.437Z,51.62
2023-03-29T23:04:38.740Z,52.19
2023-03-29T23:07:41.386Z,52.35
2023-03-29T23:10:47.035Z,52.32
2023-03-29T23:13:52.478Z,52.46
2023-03-29T23:16:55.081Z,53.04
2023-03-29T23:19:57.884Z,53.47
2023-03-29T23:23:01.317Z,53.20
2023-03-29T23:26:06.570Z,52.98
2023-03-29T23:29:09.194Z,53.13
2023-03-29T23:32:12.156Z,53.10
2023-03-29T23:35:15.142Z,53.50
2023-03-29T23:38:17.935Z,53.68
2023-03-29T23:41:22.962Z,53.69
2023-03-29T23:44:25.595Z,53.40
2023-03-29T23:47:28.696Z,54.04
2023-03-29T23:50:31.351Z,54.83
2023-03-29T23:53:34.040Z,55.14
2023-03-29T23:56:38.020Z,55.21
2023-03-29T23:59:40.648Z,54.93
